createdAt,value
2023-01-20T01:46:07.140Z,23.12
2023-01-20T01:47:09.923Z,24.85
2023-01-20T01:48:12.482Z,25.65
2023-01-20T01:49:15.028Z,24.86
2023-01-20T01:50:17.601Z,30.61
2023-01-20T01:51:20.122Z,28.68
2023-01-20T01:52:22.699Z,26.81
2023-01-20T01:53:25.233Z,25.22
2023-01-20T01:54:27.824Z,32.71
2023-01-20T01:55:30.346Z,35.53
2023-01-20T01:56:32.959Z,34.76
2023-01-20T01:57:35.444Z,31.18
2023-01-20T01:58:37.974Z,27.85
2023-01-20T01:59:40.554Z,30.57
2023-01-20T02:00:43.135Z,35.69
2023-01-20T02:01:45.874Z,29.05
2023-01-20T02:02:48.693Z,31.45
2023-01-20T02:03:51.221Z,38.51
2023-01-20T02:04:53.761Z,35.73
2023-01-20T02:05:56.318Z,32.63
2023-01-20T02:06:59.152Z,42.08
2023-01-20T02:08:01.708Z,34.66
2023-01-20T02:09:04.253Z,34.44
2023-01-20T02:10:06.823Z,37.81
2023-01-20T02:11:09.409Z,33.25
2023-01-20T02:12:11.943Z,37.51
2023-01-20T02:13:14.494Z,39.81
2023-01-20T02:14:17.012Z,34.87
2023-01-20T02:15:19.754Z,38.34
2023-01-20T02:16:22.552Z,37.31
2023-01-20T02:17:25.124Z,34.50
2023-01-20T02:18:27.690Z,37.22
2023-01-20T02:19:30.232Z,34.27
2023-01-20T02:20:32.746Z,39.97
2023-01-20T02:21:35.182Z,32.59
2023-01-20T02:22:37.806Z,36.75
2023-01-20T02:23:40.282Z,38.71
2023-01-20T02:24:42.814Z,32.81
2023-01-20T02:25:45.345Z,36.31
2023-01-20T02:26:47.887Z,34.07
2023-01-20T02:27:50.657Z,34.08
2023-01-20T02:28:53.159Z,30.09
2023-01-20T02:29:55.851Z,35.23
2023-01-20T02:30:58.388Z,43.76
2023-01-20T02:32:00.916Z,39.69
2023-01-20T02:33:03.472Z,35.29
2023-01-20T02:34:06.052Z,38.21
2023-01-20T02:35:08.544Z,36.34
2023-01-20T02:36:11.077Z,38.66
2023-01-20T02:37:13.750Z,36.44
2023-01-20T02:38:16.301Z,37.61
2023-01-20T02:39:27.309Z,33.01
2023-01-20T02:40:23.481Z,34.97
2023-01-20T02:41:26.010Z,41.54
2023-01-20T02:42:28.558Z,35.94
2023-01-20T02:43:31.170Z,39.47
2023-01-20T02:44:33.700Z,34.37
2023-01-20T02:45:36.271Z,33.17
2023-01-20T02:46:38.974Z,34.80
2023-01-20T02:47:41.528Z,35.54
2023-01-20T02:48:46.009Z,43.73
2023-01-20T02:49:48.563Z,35.38
2023-01-20T02:50:51.090Z,36.51
2023-01-20T02:51:53.640Z,37.01
2023-01-20T02:52:56.238Z,36.77
2023-01-20T02:53:58.805Z,34.41
2023-01-20T02:55:01.382Z,32.19
2023-01-20T02:56:03.920Z,37.69
2023-01-20T02:57:06.446Z,34.87
2023-01-20T02:58:08.986Z,34.85
2023-01-20T02:59:11.560Z,35.07
2023-01-20T03:00:14.296Z,35.27
2023-01-20T03:01:16.899Z,34.52
2023-01-20T03:02:19.593Z,38.74
2023-01-20T03:03:22.135Z,35.93
2023-01-20T03:04:24.678Z,37.31
2023-01-20T03:05:27.326Z,33.05
2023-01-20T03:06:29.943Z,33.56
2023-01-20T03:07:32.513Z,36.27
2023-01-20T03:08:35.046Z,43.16
2023-01-20T03:09:37.602Z,43.17
2023-01-20T03:10:40.328Z,40.48
2023-01-20T03:11:42.866Z,37.81
2023-01-20T03:12:45.402Z,37.76
2023-01-20T03:13:47.941Z,36.61
2023-01-20T03:14:50.538Z,34.71
2023-01-20T03:15:53.089Z,32.39
2023-01-20T03:16:55.662Z,40.11
2023-01-20T03:17:58.155Z,36.10
2023-01-20T03:19:00.688Z,35.81
2023-01-20T03:20:03.253Z,36.47
2023-01-20T03:21:05.784Z,40.17
2023-01-20T03:22:08.335Z,38.88
2023-01-20T03:23:10.861Z,42.45
2023-01-20T03:24:13.402Z,35.49
2023-01-20T03:25:16.472Z,34.51
2023-01-20T03:26:19.485Z,39.96
2023-01-20T03:27:22.049Z,37.01
2023-01-20T03:28:24.581Z,39.31
2023-01-20T03:29:27.028Z,36.82
2023-01-20T03:30:29.664Z,38.00
2023-01-20T03:31:32.684Z,40.03
2023-01-20T03:32:35.226Z,36.22
2023-01-20T03:33:37.755Z,43.79
2023-01-20T03:34:40.279Z,45.13
2023-01-20T03:35:42.837Z,36.09
2023-01-20T03:36:45.380Z,41.50
2023-01-20T03:37:47.918Z,38.93
2023-01-20T03:38:50.454Z,39.27
2023-01-20T03:39:52.985Z,41.59
2023-01-20T03:40:55.559Z,40.16
2023-01-20T03:41:58.341Z,44.29
2023-01-20T03:43:00.882Z,41.21
2023-01-20T03:44:03.401Z,41.06
2023-01-20T03:45:05.949Z,46.61
2023-01-20T03:46:08.672Z,43.83
2023-01-20T03:47:11.269Z,39.47
2023-01-20T03:48:13.905Z,40.47
2023-01-20T03:49:16.415Z,37.35
2023-01-20T03:50:18.885Z,46.21
2023-01-20T03:51:21.654Z,37.85
2023-01-20T03:52:24.201Z,36.02
2023-01-20T03:53:28.561Z,35.86
2023-01-20T03:54:31.119Z,36.26
2023-01-20T03:55:33.721Z,30.73
2023-01-20T03:56:36.286Z,37.94
2023-01-20T03:57:38.816Z,36.32
2023-01-20T03:58:41.516Z,42.21
2023-01-20T03:59:43.993Z,37.15
2023-01-20T04:00:46.529Z,39.19
2023-01-20T04:01:49.377Z,37.25
2023-01-20T04:02:51.936Z,41.73
2023-01-20T04:03:54.484Z,35.29
2023-01-20T04:04:57.031Z,37.57
2023-01-20T04:05:59.617Z,42.56
2023-01-20T04:07:02.362Z,30.36
2023-01-20T04:08:04.905Z,45.59
2023-01-20T04:09:07.657Z,39.50
2023-01-20T04:10:10.185Z,35.59
2023-01-20T04:11:12.727Z,41.92
2023-01-20T04:12:15.287Z,44.90
2023-01-20T04:13:17.830Z,33.54
2023-01-20T04:14:20.372Z,37.75
2023-01-20T04:15:22.904Z,40.25
2023-01-20T04:16:25.483Z,41.97
2023-01-20T04:17:28.085Z,40.70
2023-01-20T04:18:30.613Z,49.77
2023-01-20T04:19:33.149Z,42.52
2023-01-20T04:20:35.686Z,39.77
2023-01-20T04:21:38.121Z,38.25
2023-01-20T04:22:40.709Z,48.89
2023-01-20T04:23:43.295Z,39.07
2023-01-20T04:24:45.833Z,42.07
2023-01-20T04:25:48.419Z,39.52
2023-01-20T04:26:51.553Z,41.78
2023-01-20T04:27:54.132Z,44.39
2023-01-20T04:28:56.688Z,38.86
2023-01-20T04:29:59.216Z,42.60
2023-01-20T04:31:01.861Z,49.97
2023-01-20T04:32:04.689Z,43.87
2023-01-20T04:33:07.539Z,42.90
2023-01-20T04:34:10.069Z,39.15
2023-01-20T04:35:12.937Z,37.14
2023-01-20T04:36:15.873Z,38.61
2023-01-20T04:37:18.411Z,40.11
2023-01-20T04:38:21.152Z,44.19
2023-01-20T04:39:23.722Z,46.91
2023-01-20T04:40:26.278Z,40.05
2023-01-20T04:41:28.814Z,42.88
2023-01-20T04:42:31.380Z,39.37
2023-01-20T04:43:34.002Z,43.95
2023-01-20T04:44:36.572Z,38.25
2023-01-20T04:45:39.109Z,47.88
2023-01-20T04:46:41.702Z,42.82
2023-01-20T04:47:44.218Z,44.45
2023-01-20T04:48:46.999Z,44.07
2023-01-20T04:49:49.539Z,39.46
2023-01-20T04:50:52.081Z,46.23
2023-01-20T04:51:54.620Z,46.47
2023-01-20T04:52:58.911Z,41.75
2023-01-20T04:54:01.892Z,45.08
2023-01-20T04:55:04.433Z,44.01
2023-01-20T04:56:07.188Z,40.24
2023-01-20T04:57:09.751Z,48.13
2023-01-20T04:58:12.292Z,46.65
2023-01-20T04:59:14.833Z,48.10
2023-01-20T05:00:17.382Z,48.47
2023-01-20T05:01:20.029Z,44.31
2023-01-20T05:02:22.899Z,40.92
2023-01-20T05:03:25.510Z,46.76
2023-01-20T05:04:28.368Z,40.89
2023-01-20T05:05:30.939Z,43.71
2023-01-20T05:06:33.520Z,47.25
2023-01-20T05:07:36.115Z,42.53
2023-01-20T05:08:38.989Z,47.36
2023-01-20T05:09:41.661Z,52.49
2023-01-20T05:10:44.184Z,47.32
2023-01-20T05:11:46.750Z,46.08
2023-01-20T05:12:49.307Z,49.55
2023-01-20T05:13:51.839Z,48.54
2023-01-20T05:14:54.374Z,47.81
2023-01-20T05:15:56.925Z,51.33
2023-01-20T05:16:59.933Z,51.60
2023-01-20T05:18:02.504Z,47.20
2023-01-20T05:19:05.034Z,53.12
2023-01-20T05:20:07.977Z,43.39
2023-01-20T05:21:10.534Z,53.77
2023-01-20T05:22:13.058Z,49.89
2023-01-20T05:23:15.617Z,57.86
2023-01-20T05:24:18.152Z,42.33
2023-01-20T05:25:20.717Z,53.94
2023-01-20T05:26:23.267Z,48.11
2023-01-20T05:27:25.809Z,46.45
2023-01-20T05:28:28.385Z,46.48
2023-01-20T05:29:30.962Z,49.95
2023-01-20T05:30:33.583Z,43.44
2023-01-20T05:31:36.116Z,47.03
2023-01-20T05:32:38.701Z,49.10
2023-01-20T05:33:41.271Z,55.23
2023-01-20T05:34:43.848Z,52.03
2023-01-20T05:35:46.399Z,47.95
2023-01-20T05:36:48.925Z,46.67
2023-01-20T05:37:51.463Z,43.99
2023-01-20T05:38:54.091Z,49.15
2023-01-20T05:39:56.657Z,51.84
2023-01-20T05:40:59.188Z,45.84
2023-01-20T05:42:01.728Z,52.39
2023-01-20T05:43:04.570Z,47.64
2023-01-20T05:44:07.144Z,54.14
2023-01-20T05:45:09.670Z,44.60
2023-01-20T05:46:12.850Z,44.72
2023-01-20T05:47:15.363Z,53.26
2023-01-20T05:48:17.903Z,50.50
2023-01-20T05:49:20.484Z,50.39
2023-01-20T05:50:23.022Z,49.27
2023-01-20T05:51:25.562Z,48.70
2023-01-20T05:52:28.534Z,44.20
2023-01-20T05:53:31.118Z,46.37
2023-01-20T05:54:33.723Z,57.99
2023-01-20T05:55:36.262Z,47.85
2023-01-20T05:56:38.708Z,54.21
2023-01-20T05:57:41.259Z,52.62
2023-01-20T05:58:43.818Z,55.35
2023-01-20T05:59:46.384Z,55.91
2023-01-20T06:00:48.968Z,48.09
2023-01-20T06:01:51.611Z,53.34
2023-01-20T06:02:54.360Z,44.46
2023-01-20T06:03:57.274Z,50.41
2023-01-20T06:04:59.941Z,53.06
2023-01-20T06:06:02.602Z,51.04
2023-01-20T06:07:05.140Z,56.65
2023-01-20T06:08:07.689Z,46.75
2023-01-20T06:09:10.233Z,45.99
2023-01-20T06:10:12.821Z,56.86
2023-01-20T06:11:15.350Z,50.15
2023-01-20T06:12:17.877Z,51.90
2023-01-20T06:13:20.616Z,50.49
2023-01-20T06:14:23.144Z,49.38
2023-01-20T06:15:25.699Z,51.42
2023-01-20T06:16:28.368Z,49.79
2023-01-20T06:17:30.863Z,56.73
2023-01-20T06:18:33.398Z,50.91
2023-01-20T06:19:35.946Z,56.61
2023-01-20T06:20:38.494Z,50.33
2023-01-20T06:21:41.037Z,56.65
2023-01-20T06:22:43.584Z,56.03
2023-01-20T06:23:46.100Z,50.57
2023-01-20T06:24:48.640Z,51.25
2023-01-20T06:25:51.198Z,55.21
2023-01-20T06:26:53.740Z,52.34
2023-01-20T06:27:56.271Z,53.37
2023-01-20T06:28:58.860Z,49.14
2023-01-20T06:30:01.368Z,55.99
2023-01-20T06:31:04.211Z,49.92
2023-01-20T06:32:06.970Z,52.73
2023-01-20T06:33:09.509Z,45.97
2023-01-20T06:34:12.111Z,51.82
2023-01-20T06:35:14.874Z,56.41
2023-01-20T06:36:17.971Z,53.78
2023-01-20T06:37:20.483Z,56.03
2023-01-20T06:38:23.010Z,52.51
2023-01-20T06:39:25.548Z,62.12
2023-01-20T06:40:28.094Z,49.69
2023-01-20T06:41:30.648Z,53.60
2023-01-20T06:42:33.271Z,52.83
2023-01-20T06:43:35.903Z,49.38
2023-01-20T06:44:38.466Z,58.19
2023-01-20T06:45:41.211Z,56.93
2023-01-20T06:46:43.937Z,49.29
2023-01-20T06:47:46.640Z,56.98
2023-01-20T06:48:49.274Z,55.15
2023-01-20T06:49:51.811Z,54.77
2023-01-20T06:50:54.389Z,71.07
2023-01-20T06:51:56.960Z,60.61
2023-01-20T06:52:59.502Z,57.29
2023-01-20T06:54:02.046Z,58.65
2023-01-20T06:55:04.573Z,51.63
2023-01-20T06:56:07.104Z,75.75
2023-01-20T06:57:09.930Z,50.19
2023-01-20T06:58:12.461Z,76.14
2023-01-20T06:59:14.996Z,64.13
2023-01-20T07:00:17.537Z,53.14
2023-01-20T07:01:21.405Z,55.19
2023-01-20T07:02:24.413Z,57.72
2023-01-20T07:03:26.922Z,68.83
2023-01-20T07:04:29.462Z,68.90
2023-01-20T07:05:31.991Z,55.13
2023-01-20T07:06:34.620Z,51.79
2023-01-20T07:07:37.274Z,97.51
2023-01-20T07:08:39.802Z,96.48
2023-01-20T07:09:42.344Z,66.72
2023-01-20T07:10:44.903Z,61.52
2023-01-20T07:11:47.439Z,92.32
2023-01-20T07:12:50.164Z,82.95
2023-01-20T07:13:52.769Z,84.11
2023-01-20T07:14:55.284Z,74.83
2023-01-20T07:15:57.916Z,75.81
2023-01-20T07:17:00.815Z,53.55
2023-01-20T07:18:03.374Z,77.41
2023-01-20T07:19:06.142Z,60.95
2023-01-20T07:20:08.657Z,64.43
2023-01-20T07:21:11.216Z,61.65
2023-01-20T07:22:13.722Z,56.79
2023-01-20T07:23:16.256Z,63.39
2023-01-20T07:24:18.856Z,62.59
2023-01-20T07:25:21.358Z,58.07
2023-01-20T07:26:24.033Z,63.50
2023-01-20T07:27:26.570Z,58.46
2023-01-20T07:28:29.102Z,54.02
2023-01-20T07:29:31.689Z,63.73
2023-01-20T07:30:34.566Z,50.16
2023-01-20T07:31:37.189Z,50.72
2023-01-20T07:32:39.700Z,57.09
2023-01-20T07:33:42.269Z,55.10
2023-01-20T07:34:44.845Z,56.43
2023-01-20T07:35:47.375Z,64.95
2023-01-20T07:36:49.994Z,48.37
2023-01-20T07:37:52.532Z,53.60
2023-01-20T07:38:55.134Z,60.33
2023-01-20T07:39:57.679Z,60.31
2023-01-20T07:41:00.216Z,61.71
2023-01-20T07:42:02.755Z,70.73
2023-01-20T07:43:05.296Z,73.87
2023-01-20T07:44:07.831Z,51.61
2023-01-20T07:45:10.394Z,72.99
2023-01-20T07:46:13.326Z,67.12
2023-01-20T07:47:15.863Z,73.33
2023-01-20T07:48:18.394Z,56.11
2023-01-20T07:49:20.934Z,71.38
2023-01-20T07:50:23.534Z,55.83
2023-01-20T07:51:25.971Z,78.85
2023-01-20T07:52:28.531Z,69.72
2023-01-20T07:53:31.004Z,71.49
2023-01-20T07:54:33.549Z,72.61
2023-01-20T07:55:36.102Z,74.46
2023-01-20T07:56:38.654Z,56.94
2023-01-20T07:57:41.169Z,48.35
2023-01-20T07:58:43.717Z,45.87
2023-01-20T07:59:46.259Z,49.37
2023-01-20T08:00:49.045Z,59.22
2023-01-20T08:01:51.902Z,69.41
2023-01-20T08:02:54.531Z,57.11
2023-01-20T08:03:57.083Z,51.05
2023-01-20T08:04:59.627Z,60.84
2023-01-20T08:06:02.168Z,57.07
2023-01-20T08:07:04.706Z,49.18
2023-01-20T08:08:07.244Z,71.31
2023-01-20T08:09:09.781Z,54.38
2023-01-20T08:10:12.328Z,50.54
2023-01-20T08:11:14.901Z,42.35
2023-01-20T08:12:17.436Z,53.46
2023-01-20T08:13:19.963Z,64.38
2023-01-20T08:14:22.534Z,53.37
2023-01-20T08:15:25.107Z,64.89
2023-01-20T08:16:27.633Z,41.09
2023-01-20T08:17:30.470Z,51.57
2023-01-20T08:18:33.027Z,52.94
2023-01-20T08:19:35.568Z,65.93
2023-01-20T08:20:38.172Z,63.53
2023-01-20T08:21:40.781Z,54.48
2023-01-20T08:22:43.314Z,54.79
2023-01-20T08:23:45.860Z,60.33
2023-01-20T08:24:48.394Z,46.04
2023-01-20T08:25:50.938Z,58.13
2023-01-20T08:26:53.566Z,65.73
2023-01-20T08:27:56.110Z,56.23
2023-01-20T08:28:58.840Z,52.17
2023-01-20T08:30:01.423Z,53.51
2023-01-20T08:31:04.404Z,55.11
2023-01-20T08:32:07.115Z,52.83
2023-01-20T08:33:09.657Z,47.62
2023-01-20T08:34:12.211Z,58.97
2023-01-20T08:35:15.016Z,47.75
2023-01-20T08:36:17.742Z,67.02
2023-01-20T08:37:20.303Z,53.93
2023-01-20T08:38:23.000Z,60.04
2023-01-20T08:39:25.571Z,56.38
2023-01-20T08:40:28.140Z,55.35
2023-01-20T08:41:30.729Z,51.06
2023-01-20T08:42:33.327Z,55.45
2023-01-20T08:43:35.883Z,41.07
2023-01-20T08:44:38.417Z,41.77
2023-01-20T08:45:41.018Z,46.17
2023-01-20T08:46:44.133Z,48.53
2023-01-20T08:47:46.704Z,46.17
2023-01-20T08:48:49.257Z,51.87
2023-01-20T08:49:51.798Z,49.84
2023-01-20T08:50:54.392Z,39.43
2023-01-20T08:51:56.941Z,48.56
2023-01-20T08:52:59.537Z,50.35
2023-01-20T08:54:02.095Z,45.89
2023-01-20T08:55:04.932Z,42.47
2023-01-20T08:56:07.611Z,39.37
2023-01-20T08:57:10.173Z,42.83
2023-01-20T08:58:12.729Z,43.21
2023-01-20T08:59:15.292Z,42.65
2023-01-20T09:00:18.168Z,40.37
2023-01-20T09:01:20.759Z,44.23
2023-01-20T09:02:23.678Z,41.98
2023-01-20T09:03:26.382Z,40.79
2023-01-20T09:04:29.028Z,48.40
2023-01-20T09:05:31.536Z,45.70
2023-01-20T09:06:34.083Z,39.64
2023-01-20T09:07:36.706Z,37.90
2023-01-20T09:08:39.324Z,43.81
2023-01-20T09:09:41.967Z,37.82
2023-01-20T09:10:44.951Z,42.02
2023-01-20T09:11:49.058Z,37.97
2023-01-20T09:12:51.565Z,39.08
2023-01-20T09:13:54.222Z,39.80
2023-01-20T09:14:56.746Z,54.83
2023-01-20T09:15:59.388Z,47.41
2023-01-20T09:17:02.200Z,43.76
2023-01-20T09:18:05.062Z,38.66
2023-01-20T09:19:07.744Z,42.53
2023-01-20T09:20:10.503Z,36.97
2023-01-20T09:21:13.039Z,39.61
2023-01-20T09:22:16.625Z,37.08
2023-01-20T09:23:19.439Z,44.38
2023-01-20T09:24:22.061Z,42.56
2023-01-20T09:25:24.593Z,34.32
2023-01-20T09:26:35.778Z,37.89
2023-01-20T09:27:31.525Z,41.48
2023-01-20T09:28:34.066Z,45.62
2023-01-20T09:29:36.667Z,49.61
2023-01-20T09:30:39.283Z,42.40
2023-01-20T09:31:42.188Z,35.43
2023-01-20T09:32:44.965Z,37.91
2023-01-20T09:33:47.626Z,39.63
2023-01-20T09:34:50.173Z,36.94
2023-01-20T09:35:52.714Z,36.85
2023-01-20T09:36:55.280Z,54.70
2023-01-20T09:37:57.869Z,33.92
2023-01-20T09:39:00.414Z,47.35
2023-01-20T09:40:02.972Z,40.31
2023-01-20T09:41:05.544Z,43.39
2023-01-20T09:42:08.495Z,39.96
2023-01-20T09:43:11.034Z,43.37
2023-01-20T09:44:13.584Z,38.95
2023-01-20T09:45:16.562Z,39.53
2023-01-20T09:46:19.604Z,47.06
2023-01-20T09:47:22.400Z,57.28
2023-01-20T09:48:24.915Z,55.73
2023-01-20T09:49:27.523Z,66.74
2023-01-20T09:50:30.314Z,68.63
2023-01-20T09:51:32.892Z,56.35
2023-01-20T09:52:35.435Z,46.35
2023-01-20T09:53:37.966Z,65.29
2023-01-20T09:54:40.525Z,99.24
2023-01-20T09:55:43.069Z,78.39
2023-01-20T09:56:45.655Z,76.65
2023-01-20T09:57:48.198Z,91.67
2023-01-20T09:58:50.770Z,61.77
2023-01-20T09:59:53.333Z,59.22
2023-01-20T10:00:55.913Z,57.89
2023-01-20T10:01:58.590Z,154.40
2023-01-20T10:03:01.187Z,63.99
2023-01-20T10:04:04.986Z,107.26
2023-01-20T10:05:08.057Z,123.89
2023-01-20T10:06:10.760Z,92.04
2023-01-20T10:07:13.364Z,65.96
2023-01-20T10:08:15.903Z,72.13
2023-01-20T10:09:18.449Z,73.98
2023-01-20T10:10:21.042Z,64.60
2023-01-20T10:11:23.919Z,59.83
2023-01-20T10:12:26.849Z,89.10
2023-01-20T10:13:29.400Z,111.17
2023-01-20T10:14:32.019Z,89.89
2023-01-20T10:15:34.468Z,48.69
2023-01-20T10:16:37.025Z,65.17
2023-01-20T10:17:40.624Z,48.79
2023-01-20T10:18:43.277Z,128.14
2023-01-20T10:19:45.805Z,43.63
2023-01-20T10:20:48.359Z,50.40
2023-01-20T10:21:50.906Z,47.73
2023-01-20T10:22:53.468Z,50.51
2023-01-20T10:23:56.061Z,47.78
2023-01-20T10:24:58.787Z,36.61
2023-01-20T10:26:01.426Z,43.75
2023-01-20T10:27:03.992Z,62.71
2023-01-20T10:28:06.565Z,48.51
2023-01-20T10:29:09.094Z,51.37
2023-01-20T10:30:11.737Z,41.92
2023-01-20T10:31:14.381Z,44.41
2023-01-20T10:32:17.105Z,49.31
2023-01-20T10:33:19.652Z,53.98
2023-01-20T10:34:22.275Z,48.53
2023-01-20T10:35:24.824Z,54.12
2023-01-20T10:36:27.773Z,45.11
2023-01-20T10:37:30.315Z,36.90
2023-01-20T10:38:32.884Z,39.40
2023-01-20T10:39:35.582Z,45.07
2023-01-20T10:40:38.162Z,39.25
2023-01-20T10:41:40.705Z,38.45
2023-01-20T10:42:43.239Z,56.72
2023-01-20T10:43:45.800Z,42.78
2023-01-20T10:44:48.391Z,51.47
2023-01-20T10:45:50.876Z,37.22
2023-01-20T10:46:53.460Z,45.08
2023-01-20T10:47:56.216Z,38.28
2023-01-20T10:48:58.762Z,38.35
2023-01-20T10:50:01.315Z,35.87
2023-01-20T10:51:03.863Z,41.37
2023-01-20T10:52:06.414Z,37.72
2023-01-20T10:53:09.156Z,42.69
2023-01-20T10:54:11.697Z,39.01
2023-01-20T10:55:14.509Z,38.48
2023-01-20T10:56:17.546Z,58.09
2023-01-20T10:57:20.134Z,45.36
2023-01-20T10:58:22.653Z,34.85
2023-01-20T10:59:25.288Z,45.30
2023-01-20T11:00:27.838Z,42.33
2023-01-20T11:01:30.415Z,48.08
2023-01-20T11:02:33.122Z,42.79
2023-01-20T11:03:36.109Z,40.79
2023-01-20T11:04:38.636Z,35.63
2023-01-20T11:05:41.173Z,51.03
2023-01-20T11:06:43.707Z,37.38
2023-01-20T11:07:46.251Z,38.94
2023-01-20T11:08:48.874Z,35.94
2023-01-20T11:09:51.410Z,35.65
2023-01-20T11:10:53.955Z,34.11
2023-01-20T11:11:56.488Z,32.94
2023-01-20T11:12:59.025Z,37.62
2023-01-20T11:14:01.567Z,38.30
2023-01-20T11:15:04.134Z,41.84
2023-01-20T11:16:06.901Z,36.31
2023-01-20T11:17:09.698Z,38.13
2023-01-20T11:18:12.251Z,40.13
2023-01-20T11:19:14.940Z,32.84
2023-01-20T11:20:17.927Z,33.23
2023-01-20T11:21:20.795Z,35.52
2023-01-20T11:22:23.291Z,35.01
2023-01-20T11:23:25.828Z,35.93
2023-01-20T11:24:28.364Z,36.60
2023-01-20T11:25:30.903Z,39.86
2023-01-20T11:26:33.357Z,36.13
2023-01-20T11:27:35.879Z,35.73
2023-01-20T11:28:38.411Z,36.20
2023-01-20T11:29:40.982Z,41.58
2023-01-20T11:30:43.844Z,29.18
2023-01-20T11:31:46.460Z,31.48
2023-01-20T11:32:49.161Z,32.31
2023-01-20T11:33:51.780Z,35.58
2023-01-20T11:34:54.373Z,28.59
2023-01-20T11:35:56.903Z,35.23
2023-01-20T11:36:59.564Z,42.50
2023-01-20T11:38:02.115Z,35.68
2023-01-20T11:39:04.640Z,34.22
2023-01-20T11:40:07.477Z,31.99
2023-01-20T11:41:10.010Z,39.37
2023-01-20T11:42:12.582Z,32.78
2023-01-20T11:43:15.155Z,30.29
2023-01-20T11:44:17.691Z,27.36
2023-01-20T11:45:21.464Z,40.54
2023-01-20T11:46:24.540Z,31.56
2023-01-20T11:47:27.135Z,31.50
2023-01-20T11:48:29.682Z,34.29
2023-01-20T11:49:32.216Z,31.01
2023-01-20T11:50:34.790Z,32.43
2023-01-20T11:51:37.377Z,34.20
2023-01-20T11:52:39.970Z,31.99
2023-01-20T11:53:42.495Z,29.07
2023-01-20T11:54:45.036Z,31.49
2023-01-20T11:55:47.568Z,33.99
2023-01-20T11:56:50.140Z,33.93
2023-01-20T11:57:52.932Z,36.98
2023-01-20T11:58:55.456Z,33.25
2023-01-20T11:59:58.044Z,38.23
2023-01-20T12:01:00.600Z,40.16
2023-01-20T12:02:03.181Z,32.39
2023-01-20T12:03:06.020Z,27.83
2023-01-20T12:04:08.679Z,29.01
2023-01-20T12:05:11.270Z,28.23
2023-01-20T12:06:14.219Z,36.43
2023-01-20T12:07:16.756Z,32.06
2023-01-20T12:08:19.289Z,46.63
2023-01-20T12:09:21.754Z,31.57
2023-01-20T12:10:24.319Z,30.69
2023-01-20T12:11:26.829Z,34.96
2023-01-20T12:12:29.423Z,38.51
2023-01-20T12:13:32.007Z,34.99
2023-01-20T12:14:34.609Z,38.56
2023-01-20T12:15:37.156Z,39.21
2023-01-20T12:16:39.722Z,34.83
2023-01-20T12:17:42.227Z,31.65
2023-01-20T12:19:00.514Z,38.27
2023-01-20T12:19:49.163Z,35.28
2023-01-20T12:20:55.797Z,33.93
2023-01-20T12:21:56.087Z,34.95
2023-01-20T12:22:58.612Z,31.47
2023-01-20T12:24:03.150Z,34.71
2023-01-20T12:25:05.525Z,38.71
2023-01-20T12:26:08.684Z,35.06
2023-01-20T12:27:11.227Z,34.61
2023-01-20T12:28:13.781Z,35.77
2023-01-20T12:29:16.316Z,30.52
2023-01-20T12:30:22.383Z,38.22
2023-01-20T12:31:23.344Z,33.40
2023-01-20T12:32:25.884Z,39.19
2023-01-20T12:33:28.413Z,28.50
2023-01-20T12:34:30.970Z,32.95
2023-01-20T12:35:33.522Z,30.17
2023-01-20T12:36:36.051Z,26.89
2023-01-20T12:37:38.624Z,32.21
2023-01-20T12:38:41.135Z,31.37
2023-01-20T12:39:43.678Z,34.11
2023-01-20T12:40:46.248Z,31.99
2023-01-20T12:41:48.787Z,35.35
2023-01-20T12:42:51.396Z,31.27
2023-01-20T12:43:53.943Z,28.07
2023-01-20T12:44:56.493Z,41.77
2023-01-20T12:45:59.084Z,34.44
2023-01-20T12:47:01.794Z,35.39
2023-01-20T12:48:04.695Z,34.15
2023-01-20T12:49:07.228Z,34.37
2023-01-20T12:50:09.769Z,40.69
2023-01-20T12:51:12.335Z,34.00
2023-01-20T12:52:14.936Z,33.80
2023-01-20T12:53:17.477Z,36.10
2023-01-20T12:54:20.319Z,36.28
2023-01-20T12:55:23.178Z,36.77
2023-01-20T12:56:25.840Z,34.85
2023-01-20T12:57:28.368Z,35.31
2023-01-20T12:58:30.903Z,34.20
2023-01-20T12:59:33.449Z,36.10
2023-01-20T13:00:35.981Z,34.07
2023-01-20T13:01:38.563Z,38.43
2023-01-20T13:02:41.146Z,32.67
2023-01-20T13:03:43.670Z,32.52
2023-01-20T13:04:46.219Z,34.70
2023-01-20T13:05:48.750Z,37.26
2023-01-20T13:06:51.310Z,39.43
2023-01-20T13:07:53.925Z,35.39
2023-01-20T13:08:56.488Z,36.88
2023-01-20T13:09:59.029Z,32.38
2023-01-20T13:11:01.993Z,35.89
2023-01-20T13:12:04.587Z,32.90
2023-01-20T13:13:07.164Z,31.84
2023-01-20T13:14:09.725Z,26.40
2023-01-20T13:15:12.276Z,30.33
2023-01-20T13:16:14.816Z,30.99
2023-01-20T13:17:17.359Z,30.26
2023-01-20T13:18:20.023Z,34.91
2023-01-20T13:19:22.557Z,31.71
2023-01-20T13:20:25.093Z,33.77
2023-01-20T13:21:27.662Z,36.95
2023-01-20T13:22:30.200Z,35.93
2023-01-20T13:23:32.833Z,37.83
2023-01-20T13:24:35.660Z,37.95
2023-01-20T13:25:38.325Z,37.69
2023-01-20T13:26:40.839Z,36.42
2023-01-20T13:27:43.418Z,34.25
2023-01-20T13:28:45.987Z,35.87
2023-01-20T13:29:48.685Z,34.09
2023-01-20T13:30:51.473Z,36.53
2023-01-20T13:31:54.606Z,36.37
2023-01-20T13:32:57.328Z,38.66
2023-01-20T13:33:59.937Z,33.53
2023-01-20T13:35:02.499Z,40.42
2023-01-20T13:36:05.381Z,36.76
2023-01-20T13:37:07.921Z,34.08
2023-01-20T13:38:10.552Z,28.33
2023-01-20T13:39:13.084Z,38.92
2023-01-20T13:40:15.662Z,34.41
2023-01-20T13:41:18.242Z,32.77
2023-01-20T13:42:20.840Z,34.24
2023-01-20T13:43:23.353Z,49.99
2023-01-20T13:44:26.240Z,33.57
2023-01-20T13:45:28.991Z,32.59
2023-01-20T13:46:31.559Z,33.66
2023-01-20T13:47:34.126Z,33.91
2023-01-20T13:48:36.702Z,37.12
2023-01-20T13:49:39.253Z,31.93
2023-01-20T13:50:41.807Z,37.34
2023-01-20T13:51:44.389Z,28.29
2023-01-20T13:52:46.970Z,32.53
2023-01-20T13:53:49.790Z,31.68
2023-01-20T13:54:52.387Z,29.67
2023-01-20T13:55:55.042Z,30.63
2023-01-20T13:56:57.553Z,33.32
2023-01-20T13:58:00.136Z,36.10
2023-01-20T13:59:02.687Z,30.92
2023-01-20T14:00:05.252Z,33.72
2023-01-20T14:01:07.809Z,35.38
2023-01-20T14:02:10.593Z,33.60
2023-01-20T14:03:13.114Z,30.72
2023-01-20T14:04:15.689Z,29.34
2023-01-20T14:05:18.235Z,31.48
2023-01-20T14:06:20.819Z,27.99
2023-01-20T14:07:23.334Z,39.21
2023-01-20T14:08:25.872Z,36.02
2023-01-20T14:09:28.406Z,31.67
2023-01-20T14:10:30.967Z,32.95
2023-01-20T14:11:33.510Z,35.01
2023-01-20T14:12:36.074Z,30.61
2023-01-20T14:13:39.023Z,37.34
2023-01-20T14:14:41.579Z,35.10
2023-01-20T14:15:44.283Z,33.93
2023-01-20T14:16:47.364Z,34.31
2023-01-20T14:17:49.962Z,29.21
2023-01-20T14:18:52.515Z,30.33
2023-01-20T14:19:55.083Z,31.73
2023-01-20T14:20:57.738Z,32.89
2023-01-20T14:22:00.293Z,33.65
2023-01-20T14:23:02.869Z,36.27
2023-01-20T14:24:05.437Z,31.74
2023-01-20T14:25:08.058Z,31.58
2023-01-20T14:26:11.713Z,33.18
2023-01-20T14:27:14.244Z,32.49
2023-01-20T14:28:16.790Z,30.61
2023-01-20T14:29:19.324Z,30.15
2023-01-20T14:30:21.956Z,30.11
2023-01-20T14:31:24.816Z,30.62
2023-01-20T14:32:27.354Z,30.41
2023-01-20T14:33:29.908Z,29.17
2023-01-20T14:34:32.857Z,27.15
2023-01-20T14:35:35.382Z,31.58
2023-01-20T14:36:37.945Z,25.49
2023-01-20T14:37:40.723Z,28.47
2023-01-20T14:38:56.421Z,36.91
2023-01-20T14:39:47.649Z,30.04
2023-01-20T14:40:50.222Z,29.75
2023-01-20T14:41:52.778Z,30.15
2023-01-20T14:42:55.447Z,31.67
2023-01-20T14:43:57.991Z,29.91
2023-01-20T14:45:00.526Z,29.43
2023-01-20T14:46:03.140Z,33.04
2023-01-20T14:47:05.858Z,29.77
2023-01-20T14:48:08.425Z,29.27
2023-01-20T14:49:10.976Z,32.91
2023-01-20T14:50:14.575Z,26.12
2023-01-20T14:51:17.607Z,33.26
2023-01-20T14:52:20.192Z,31.77
2023-01-20T14:53:22.804Z,31.49
2023-01-20T14:54:25.329Z,32.60
2023-01-20T14:55:27.806Z,32.06
2023-01-20T14:56:30.553Z,29.62
2023-01-20T14:57:33.105Z,31.66
2023-01-20T14:58:35.652Z,26.44
2023-01-20T14:59:38.296Z,26.10
2023-01-20T15:00:40.849Z,33.48
2023-01-20T15:01:43.481Z,34.14
2023-01-20T15:02:47.990Z,32.64
2023-01-20T15:03:50.836Z,35.29
2023-01-20T15:04:53.386Z,36.15
2023-01-20T15:05:55.925Z,33.11
2023-01-20T15:06:58.755Z,33.02
2023-01-20T15:08:01.544Z,36.75
2023-01-20T15:09:07.411Z,27.34
2023-01-20T15:10:08.971Z,33.28
2023-01-20T15:11:11.582Z,37.13
2023-01-20T15:12:14.114Z,35.46